ADDS METAR Data INFO
IDs: Format: Raw Decoded Include TAF

Data at: 0348 UTC 18 Oct 2017

KTAD 180254Z AUTO 26008KT 10SM CLR 10/M02 A3015 RMK AO2 SLP170 T01001022 50006
KTAD 180154Z AUTO 29004KT 10SM CLR 10/M01 A3016 RMK AO2 SLP185 T01001011
KTAD 180054Z AUTO 20008KT 10SM CLR 16/M04 A3014 RMK AO2 SLP171 T01561039
KTAD 172354Z AUTO 17004KT 10SM CLR 21/M06 A3013 RMK AO2 SLP155 T02061056 10250 20206 56008
KTAD 172254Z AUTO 00000KT 10SM CLR 24/M09 A3014 RMK AO2 SLP146 T02441094
KTAD 172154Z AUTO 17005KT 10SM CLR 24/M10 A3015 RMK AO2 SLP152 T02441100
KTAD 172054Z AUTO VRB03KT 10SM CLR 24/M10 A3016 RMK AO2 SLP155 T02391100 56028
KTAD 171954Z AUTO 00000KT 10SM CLR 24/M10 A3019 RMK AO2 SLP165 T02391100
KTAD 171854Z AUTO VRB03KT 10SM CLR 23/M10 A3023 RMK AO2 SLP178 T02331100
KTAD 171754Z AUTO 11005KT 10SM CLR 22/M07 A3026 RMK AO2 SLP188 T02221072 10222 20039 58011
KTAD 171654Z AUTO 00000KT 10SM CLR 19/M08 A3029 RMK AO2 SLP199 T01891078
KTAD 171554Z AUTO 28006KT 10SM CLR 16/M07 A3030 RMK AO2 SLP206 T01611067
KTAD 171454Z AUTO 25008KT 10SM CLR 12/M06 A3030 RMK AO2 SLP220 T01171061 51007
KTAD 171354Z AUTO 32005KT 10SM CLR 06/M07 A3030 RMK AO2 SLP233 T00561067
KTAD 171254Z AUTO 27010KT 10SM CLR 04/M08 A3028 RMK AO2 SLP222 T00391078
KTAD 171154Z AUTO 23007KT 10SM CLR 05/M09 A3028 RMK AO2 SLP204 T00501089 10106 20050 53001
KTAD 171054Z AUTO 26013KT 10SM CLR 07/M08 A3026 RMK AO2 SLP188 T00671083
KTAD 170954Z AUTO 26013KT 10SM CLR 07/M08 A3026 RMK AO2 SLP185 T00671083
KTAD 170854Z AUTO 26014KT 10SM CLR 07/M07 A3027 RMK AO2 SLP187 T00721072 50003
KTAD 170754Z AUTO 27012KT 10SM CLR 06/M05 A3028 RMK AO2 SLP196 T00561050
KTAD 170654Z AUTO 29009KT 10SM CLR 08/M05 A3027 RMK AO2 SLP190 T00781050 402670033
KTAD 170554Z AUTO 28012KT 10SM CLR 10/M06 A3026 RMK AO2 SLP188 T01001056 10217 20100 50001
KTAD 170454Z AUTO 27012KT 10SM CLR 12/M04 A3027 RMK AO2 SLP191 T01221039
KTAD 170354Z AUTO 25014KT 10SM CLR 13/M02 A3026 RMK AO2 SLP193 T01331022
KTAD 170254Z AUTO 26008KT 10SM CLR 12/M01 A3026 RMK AO2 SLP207 T01171011 51006
KTAD 170154Z AUTO 31007KT 10SM CLR 11/M03 A3026 RMK AO2 SLP219 T01111028
KTAD 170054Z AUTO 19010KT 4SM HZ CLR 15/M05 A3025 RMK AO2 SLP210 T01501050
KTAD 162354Z AUTO 16005KT 10SM CLR 22/M06 A3024 RMK AO2 SLP190 T02171056 10267 20217 56005
KTAD 162254Z AUTO 18004KT 10SM CLR 26/M12 A3024 RMK AO2 SLP184 T02561122
KTAD 162154Z AUTO 19007KT 10SM CLR 26/M11 A3025 RMK AO2 SLP186 T02611111
KTAD 162054Z AUTO VRB03KT 10SM CLR 27/M10 A3026 RMK AO2 SLP189 T02671100 56028
KTAD 161954Z AUTO VRB03KT 10SM CLR 26/M11 A3029 RMK AO2 SLP202 T02561111
KTAD 161854Z AUTO 00000KT 10SM CLR 24/M09 A3033 RMK AO2 SLP214 T02391094
KTAD 161754Z AUTO 00000KT 10SM CLR 22/M07 A3036 RMK AO2 SLP228 T02171067 10217 20039 58011
KTAD 161654Z AUTO 29005KT 10SM CLR 18/M05 A3038 RMK AO2 SLP244 T01831050
KTAD 161554Z AUTO 27009KT 10SM CLR 15/M06 A3039 RMK AO2 SLP253 T01501056